createdAt,value
2017-11-05T00:00:46.983Z,7.57
2017-11-05T00:01:32.397Z,7.6
2017-11-05T00:02:32.411Z,7.55
2017-11-05T00:03:32.439Z,7.53
2017-11-05T00:04:32.462Z,7.61
2017-11-05T00:05:32.482Z,7.64
2017-11-05T00:06:32.487Z,7.63
2017-11-05T00:07:32.529Z,7.68
2017-11-05T00:08:32.560Z,7.64
2017-11-05T00:09:47.144Z,7.63
2017-11-05T00:10:47.162Z,7.6
2017-11-05T00:11:32.599Z,7.57
2017-11-05T00:12:32.588Z,7.72
2017-11-05T00:13:32.300Z,7.71
2017-11-05T00:14:32.633Z,7.72
2017-11-05T00:15:32.645Z,7.79
2017-11-05T00:16:32.677Z,7.77
2017-11-05T00:17:32.683Z,7.79
2017-11-05T00:18:32.701Z,7.82
2017-11-05T00:19:32.728Z,7.79
2017-11-05T00:21:32.429Z,7.82
2017-11-05T00:22:32.790Z,7.8
2017-11-05T00:23:32.801Z,7.86
2017-11-05T00:24:47.430Z,7.82
2017-11-05T00:25:32.840Z,7.82
2017-11-05T00:27:32.871Z,7.71
2017-11-05T00:28:32.872Z,7.77
2017-11-05T00:30:32.923Z,7.77
2017-11-05T00:31:32.296Z,7.8
2017-11-05T00:32:47.239Z,7.77
2017-11-05T00:33:32.995Z,7.82
2017-11-05T00:34:32.989Z,7.69
2017-11-05T00:36:33.027Z,7.83
2017-11-05T00:37:33.055Z,7.83
2017-11-05T00:38:33.065Z,7.8
2017-11-05T00:39:33.101Z,7.85
2017-11-05T00:40:32.767Z,7.82
2017-11-05T00:41:33.128Z,7.9
2017-11-05T00:42:47.732Z,7.89
2017-11-05T00:43:33.152Z,7.82
2017-11-05T00:44:33.169Z,7.87
2017-11-05T00:45:33.202Z,7.82
2017-11-05T00:46:47.835Z,7.89
2017-11-05T00:47:33.237Z,7.83
2017-11-05T00:48:47.845Z,8.02
2017-11-05T00:49:32.928Z,8
2017-11-05T00:50:33.315Z,7.93
2017-11-05T00:51:33.297Z,7.98
2017-11-05T00:54:33.350Z,8
2017-11-05T00:55:33.354Z,7.97
2017-11-05T00:56:33.380Z,7.89
2017-11-05T00:57:33.082Z,7.9
2017-11-05T00:58:33.424Z,7.85
2017-11-05T00:59:33.426Z,7.87
2017-11-05T01:00:33.157Z,7.9
2017-11-05T01:01:33.477Z,7.8
2017-11-05T01:02:33.511Z,7.87
2017-11-05T01:03:33.524Z,7.77
2017-11-05T01:04:48.136Z,7.77
2017-11-05T01:05:33.546Z,7.72
2017-11-05T01:06:33.574Z,7.6
2017-11-05T01:07:33.578Z,7.72
2017-11-05T01:08:33.279Z,7.71
2017-11-05T01:09:33.621Z,7.75
2017-11-05T01:10:33.319Z,7.68
2017-11-05T01:11:33.335Z,7.79
2017-11-05T01:12:48.278Z,7.58
2017-11-05T01:13:47.976Z,7.58
2017-11-05T01:14:33.389Z,7.64
2017-11-05T01:15:33.410Z,7.6
2017-11-05T01:16:33.732Z,7.6
2017-11-05T01:17:33.433Z,7.53
2017-11-05T01:18:33.465Z,7.64
2017-11-05T01:19:33.158Z,7.57
2017-11-05T01:20:48.420Z,7.63
2017-11-05T01:21:33.516Z,7.6
2017-11-05T01:22:33.542Z,7.58
2017-11-05T01:23:33.554Z,7.63
2017-11-05T01:24:33.579Z,7.57
2017-11-05T01:25:33.582Z,7.6
2017-11-05T01:26:33.598Z,7.58
2017-11-05T01:27:33.942Z,7.5
2017-11-05T01:28:33.976Z,7.46
2017-11-05T01:29:33.662Z,7.37
2017-11-05T01:30:33.363Z,7.42
2017-11-05T01:31:34.004Z,7.39
2017-11-05T01:32:34.034Z,7.2
2017-11-05T01:33:34.056Z,7.27
2017-11-05T01:34:33.747Z,7.2
2017-11-05T01:35:48.688Z,7.15
2017-11-05T01:36:48.716Z,7.16
2017-11-05T01:38:34.142Z,7.24
2017-11-05T01:39:34.153Z,7.24
2017-11-05T01:40:33.854Z,7.25
2017-11-05T01:41:34.187Z,7.24
2017-11-05T01:42:34.212Z,7.27
2017-11-05T01:43:33.900Z,7.12
2017-11-05T01:44:48.850Z,7.12
2017-11-05T01:45:33.959Z,7.23
2017-11-05T01:46:34.284Z,7.15
2017-11-05T01:47:48.914Z,7.1
2017-11-05T01:48:34.325Z,7.24
2017-11-05T01:49:34.346Z,7.17
2017-11-05T01:50:33.740Z,7.15
2017-11-05T01:52:34.395Z,7.1
2017-11-05T01:53:34.090Z,7.17
2017-11-05T01:54:34.435Z,7.09
2017-11-05T01:55:34.447Z,7.1
2017-11-05T01:56:34.474Z,7.06
2017-11-05T01:57:34.480Z,6.95
2017-11-05T01:58:34.184Z,7.03
2017-11-05T02:00:34.537Z,6.99
2017-11-05T02:01:34.554Z,6.99
2017-11-05T02:02:34.574Z,7.05
2017-11-05T02:04:34.615Z,7.13
2017-11-05T02:05:34.622Z,7.16
2017-11-05T02:06:34.645Z,7.15
2017-11-05T02:07:49.270Z,7.12
2017-11-05T02:08:34.690Z,7.15
2017-11-05T02:09:34.706Z,7.13
2017-11-05T02:10:49.320Z,7.09
2017-11-05T02:11:34.408Z,7.12
2017-11-05T02:12:34.763Z,7.06
2017-11-05T02:13:49.369Z,6.98
2017-11-05T02:14:34.772Z,6.95
2017-11-05T02:15:34.799Z,6.95
2017-11-05T02:16:34.827Z,6.98
2017-11-05T02:17:34.857Z,7.07
2017-11-05T02:19:34.884Z,7.12
2017-11-05T02:20:34.896Z,7.06
2017-11-05T02:21:34.902Z,7.09
2017-11-05T02:22:34.935Z,7.13
2017-11-05T02:24:34.632Z,7.09
2017-11-05T02:26:34.681Z,7.09
2017-11-05T02:27:34.686Z,6.92
2017-11-05T02:28:35.063Z,6.98
2017-11-05T02:29:35.063Z,6.95
2017-11-05T02:30:35.070Z,6.97
2017-11-05T02:31:35.079Z,6.97
2017-11-05T02:32:35.116Z,6.99
2017-11-05T02:33:35.115Z,6.94
2017-11-05T02:34:34.812Z,6.95
2017-11-05T02:35:35.155Z,6.87
2017-11-05T02:36:35.190Z,6.81
2017-11-05T02:37:35.179Z,6.88
2017-11-05T02:38:35.218Z,6.84
2017-11-05T02:39:49.835Z,6.84
2017-11-05T02:40:49.851Z,6.87
2017-11-05T02:41:34.941Z,6.79
2017-11-05T02:42:34.957Z,6.74
2017-11-05T02:43:34.974Z,6.85
2017-11-05T02:44:35.333Z,6.87
2017-11-05T02:45:34.697Z,6.76
2017-11-05T02:46:35.352Z,6.71
2017-11-05T02:47:35.372Z,6.71
2017-11-05T02:48:35.386Z,6.67
2017-11-05T02:49:35.406Z,6.69
2017-11-05T02:50:50.018Z,6.66
2017-11-05T02:51:50.052Z,6.59
2017-11-05T02:53:35.462Z,6.61
2017-11-05T02:54:35.846Z,6.58
2017-11-05T02:55:50.123Z,6.58
2017-11-05T02:56:35.538Z,6.56
2017-11-05T02:57:35.559Z,6.61
2017-11-05T02:58:35.571Z,6.55
2017-11-05T02:59:35.616Z,6.55
2017-11-05T03:00:35.605Z,6.54
2017-11-05T03:01:35.289Z,6.62
2017-11-05T03:02:35.648Z,6.55
2017-11-05T03:03:35.651Z,6.56
2017-11-05T03:04:35.663Z,6.62
2017-11-05T03:05:35.693Z,6.58
2017-11-05T03:06:35.711Z,6.58
2017-11-05T03:07:35.404Z,6.62
2017-11-05T03:08:35.731Z,6.55
2017-11-05T03:09:35.754Z,6.51
2017-11-05T03:10:50.384Z,6.4
2017-11-05T03:11:35.794Z,6.56
2017-11-05T03:12:35.806Z,6.58
2017-11-05T03:13:35.822Z,6.55
2017-11-05T03:14:35.510Z,6.58
2017-11-05T03:15:35.872Z,6.58
2017-11-05T03:16:35.873Z,6.54
2017-11-05T03:17:35.892Z,6.61
2017-11-05T03:18:35.600Z,6.54
2017-11-05T03:19:35.943Z,6.56
2017-11-05T03:20:35.620Z,6.56
2017-11-05T03:22:35.985Z,6.62
2017-11-05T03:23:35.682Z,6.66
2017-11-05T03:24:36.043Z,6.67
2017-11-05T03:26:35.733Z,6.73
2017-11-05T03:27:35.756Z,6.61
2017-11-05T03:28:36.077Z,6.64
2017-11-05T03:29:35.790Z,6.56
2017-11-05T03:30:36.141Z,6.52
2017-11-05T03:31:35.833Z,6.43
2017-11-05T03:32:35.837Z,6.36
2017-11-05T03:34:36.196Z,6.41
2017-11-05T03:35:36.214Z,6.48
2017-11-05T03:36:35.904Z,6.54
2017-11-05T03:37:36.252Z,6.55
2017-11-05T03:38:35.942Z,6.67
2017-11-05T03:39:36.270Z,6.61
2017-11-05T03:40:36.296Z,6.76
2017-11-05T03:41:36.335Z,6.7
2017-11-05T03:42:50.940Z,6.74
2017-11-05T03:44:36.359Z,6.61
2017-11-05T03:45:35.741Z,6.64
2017-11-05T03:46:36.431Z,6.61
2017-11-05T03:47:36.440Z,6.58
2017-11-05T03:48:36.116Z,6.52
2017-11-05T03:49:36.466Z,6.51
2017-11-05T03:50:36.488Z,6.34
2017-11-05T03:51:36.489Z,6.4
2017-11-05T03:52:36.182Z,6.4
2017-11-05T03:53:36.520Z,6.41
2017-11-05T03:54:36.528Z,6.41
2017-11-05T03:55:36.564Z,6.43
2017-11-05T03:56:36.561Z,6.52
2017-11-05T03:57:36.271Z,6.61
2017-11-05T03:58:51.223Z,6.61
2017-11-05T03:59:36.638Z,6.56
2017-11-05T04:00:36.656Z,6.56
2017-11-05T04:01:36.662Z,6.58
2017-11-05T04:02:36.683Z,6.58
2017-11-05T04:03:36.696Z,6.59
2017-11-05T04:04:36.719Z,6.61
2017-11-05T04:05:51.336Z,6.62
2017-11-05T04:06:36.764Z,6.67
2017-11-05T04:07:36.775Z,6.66
2017-11-05T04:08:36.788Z,6.64
2017-11-05T04:09:36.791Z,6.62
2017-11-05T04:10:36.831Z,6.59
2017-11-05T04:11:36.849Z,6.56
2017-11-05T04:12:36.842Z,6.58
2017-11-05T04:13:36.876Z,6.61
2017-11-05T04:14:51.500Z,6.59
2017-11-05T04:16:36.922Z,6.64
2017-11-05T04:17:36.951Z,6.61
2017-11-05T04:18:36.653Z,6.71
2017-11-05T04:19:37.012Z,6.71
2017-11-05T04:20:36.988Z,6.71
2017-11-05T04:21:37.000Z,6.66
2017-11-05T04:22:36.702Z,6.79
2017-11-05T04:23:51.646Z,6.7
2017-11-05T04:24:36.772Z,6.73
2017-11-05T04:25:36.768Z,6.71
2017-11-05T04:26:36.766Z,6.62
2017-11-05T04:27:36.784Z,6.64
2017-11-05T04:28:36.812Z,6.58
2017-11-05T04:29:36.828Z,6.58
2017-11-05T04:30:51.764Z,6.56
2017-11-05T04:32:37.197Z,6.58
2017-11-05T04:33:37.222Z,6.55
2017-11-05T04:34:37.245Z,6.54
2017-11-05T04:35:36.937Z,6.54
2017-11-05T04:36:36.944Z,6.38
2017-11-05T04:37:36.976Z,6.48
2017-11-05T04:38:36.977Z,6.4
2017-11-05T04:39:37.321Z,6.34
2017-11-05T04:40:37.332Z,6.27
2017-11-05T04:41:37.358Z,6.3
2017-11-05T04:43:37.082Z,6.27
2017-11-05T04:44:37.082Z,6.27
2017-11-05T04:45:51.719Z,6.31
2017-11-05T04:47:37.465Z,6.46
2017-11-05T04:48:37.488Z,6.37
2017-11-05T04:49:37.504Z,6.48
2017-11-05T04:50:37.529Z,6.54
2017-11-05T04:51:37.543Z,6.55
2017-11-05T04:52:37.554Z,6.59
2017-11-05T04:53:37.573Z,6.55
2017-11-05T04:54:37.597Z,6.61
2017-11-05T04:55:37.288Z,6.61
2017-11-05T04:56:37.624Z,6.56
2017-11-05T04:57:37.625Z,6.67
2017-11-05T04:58:52.270Z,6.59
2017-11-05T04:59:37.681Z,6.59
2017-11-05T05:00:37.684Z,6.62
2017-11-05T05:02:37.725Z,6.61
2017-11-05T05:03:37.434Z,6.55
2017-11-05T05:04:37.762Z,6.59
2017-11-05T05:05:37.444Z,6.49
2017-11-05T05:06:37.479Z,6.41
2017-11-05T05:07:37.483Z,6.43
2017-11-05T05:08:37.840Z,6.44
2017-11-05T05:09:37.849Z,6.41
2017-11-05T05:10:37.862Z,6.41
2017-11-05T05:11:52.480Z,6.43
2017-11-05T05:12:52.512Z,6.27
2017-11-05T05:13:37.912Z,6.3
2017-11-05T05:14:37.927Z,6.38
2017-11-05T05:15:37.946Z,6.49
2017-11-05T05:16:52.579Z,6.52
2017-11-05T05:17:52.597Z,6.51
2017-11-05T05:18:37.998Z,6.51
2017-11-05T05:19:38.009Z,6.52
2017-11-05T05:20:38.045Z,6.54
2017-11-05T05:22:37.742Z,6.51
2017-11-05T05:23:38.121Z,6.4
2017-11-05T05:25:38.122Z,6.38
2017-11-05T05:26:38.151Z,6.36
2017-11-05T05:27:38.152Z,6.37
2017-11-05T05:28:38.171Z,6.33
2017-11-05T05:29:38.186Z,6.3
2017-11-05T05:30:37.885Z,6.34
2017-11-05T05:31:38.242Z,6.36
2017-11-05T05:32:52.850Z,6.34
2017-11-05T05:34:37.964Z,6.28
2017-11-05T05:35:37.962Z,6.33
2017-11-05T05:36:38.309Z,6.28
2017-11-05T05:37:38.014Z,6.28
2017-11-05T05:38:38.355Z,6.38
2017-11-05T05:39:38.371Z,6.34
2017-11-05T05:40:38.371Z,6.36
2017-11-05T05:41:38.393Z,6.49
2017-11-05T05:42:38.404Z,6.38
2017-11-05T05:43:38.111Z,6.41
2017-11-05T05:44:38.467Z,6.43
2017-11-05T05:45:38.143Z,6.41
2017-11-05T05:46:38.163Z,6.41
2017-11-05T05:47:38.184Z,6.44
2017-11-05T05:48:38.197Z,6.44
2017-11-05T05:49:53.138Z,6.48
2017-11-05T05:50:38.554Z,6.37
2017-11-05T05:51:38.237Z,6.38
2017-11-05T05:52:38.263Z,6.31
2017-11-05T05:53:38.595Z,6.41
2017-11-05T05:54:38.632Z,6.4
2017-11-05T05:55:52.923Z,6.43
2017-11-05T05:56:53.260Z,6.41
2017-11-05T05:58:38.695Z,6.36
2017-11-05T05:59:38.718Z,6.38
2017-11-05T06:00:38.405Z,6.43
2017-11-05T06:01:38.740Z,6.43
2017-11-05T06:05:53.412Z,6.46
2017-11-05T06:06:38.825Z,6.48
2017-11-05T06:07:38.848Z,6.49
2017-11-05T06:08:38.864Z,6.38
2017-11-05T06:09:38.880Z,6.41
2017-11-05T06:11:38.909Z,6.38
2017-11-05T06:12:38.936Z,6.44
2017-11-05T06:13:53.548Z,6.46
2017-11-05T06:14:38.961Z,6.48
2017-11-05T06:15:38.989Z,6.54
2017-11-05T06:16:39.004Z,6.49
2017-11-05T06:18:39.022Z,6.56
2017-11-05T06:19:39.050Z,6.36
2017-11-05T06:21:38.444Z,6.54
2017-11-05T06:22:39.109Z,6.51
2017-11-05T06:23:39.123Z,6.55
2017-11-05T06:24:39.142Z,6.56
2017-11-05T06:25:39.152Z,6.59
2017-11-05T06:26:38.860Z,6.74
2017-11-05T06:27:39.180Z,6.59
2017-11-05T06:28:39.208Z,6.74
2017-11-05T06:29:39.235Z,6.74
2017-11-05T06:30:53.844Z,6.73
2017-11-05T06:31:39.258Z,6.81
2017-11-05T06:32:38.962Z,6.71
2017-11-05T06:33:38.972Z,6.69
2017-11-05T06:34:39.315Z,6.69
2017-11-05T06:35:39.343Z,6.73
2017-11-05T06:36:39.359Z,6.84
2017-11-05T06:37:39.360Z,6.81
2017-11-05T06:38:54.003Z,6.92
2017-11-05T06:39:39.396Z,6.84
2017-11-05T06:40:39.427Z,6.87
2017-11-05T06:41:39.448Z,6.8
2017-11-05T06:42:39.137Z,6.88
2017-11-05T06:43:39.456Z,6.85
2017-11-05T06:44:54.089Z,6.97
2017-11-05T06:45:39.523Z,6.95
2017-11-05T06:46:39.512Z,6.97
2017-11-05T06:47:39.208Z,6.98
2017-11-05T06:48:54.168Z,7.02
2017-11-05T06:50:39.586Z,6.84
2017-11-05T06:51:39.624Z,6.94
2017-11-05T06:52:53.913Z,6.95
2017-11-05T06:53:39.643Z,6.98
2017-11-05T06:54:39.662Z,6.95
2017-11-05T06:55:39.676Z,7.07
2017-11-05T06:57:39.722Z,7.09
2017-11-05T07:01:39.777Z,7.21
2017-11-05T07:02:39.805Z,7.25
2017-11-05T07:03:39.826Z,7.37
2017-11-05T07:04:39.831Z,7.48
2017-11-05T07:05:54.468Z,7.46
2017-11-05T07:06:39.869Z,7.52
2017-11-05T07:07:39.563Z,7.5
2017-11-05T07:09:39.918Z,7.77
2017-11-05T07:10:39.936Z,7.57
2017-11-05T07:11:39.955Z,7.74
2017-11-05T07:12:39.654Z,7.61
2017-11-05T07:13:39.994Z,7.72
2017-11-05T07:14:40.019Z,7.6
2017-11-05T07:15:40.045Z,7.71
2017-11-05T07:16:40.056Z,7.86
2017-11-05T07:18:40.098Z,7.89
2017-11-05T07:19:54.726Z,8.01
2017-11-05T07:20:39.803Z,8.01
2017-11-05T07:21:39.823Z,8.07
2017-11-05T07:22:39.847Z,8.1
2017-11-05T07:23:40.200Z,8.2
2017-11-05T07:24:54.805Z,8.26
2017-11-05T07:25:40.229Z,8.26
2017-11-05T07:26:40.251Z,8.34
2017-11-05T07:27:40.273Z,8.38
2017-11-05T07:28:40.286Z,8.38
2017-11-05T07:29:40.304Z,8.43
2017-11-05T07:30:40.323Z,8.53
2017-11-05T07:31:40.362Z,8.43
2017-11-05T07:32:40.375Z,8.56
2017-11-05T07:33:40.066Z,8.58
2017-11-05T07:34:40.404Z,8.53
2017-11-05T07:35:40.422Z,8.55
2017-11-05T07:36:40.457Z,8.71
2017-11-05T07:37:40.445Z,8.76
2017-11-05T07:38:40.466Z,8.73
2017-11-05T07:39:40.517Z,8.83
2017-11-05T07:40:55.116Z,8.91
2017-11-05T07:41:40.544Z,8.89
2017-11-05T07:42:40.226Z,8.99
2017-11-05T07:43:40.575Z,9.01
2017-11-05T07:44:40.266Z,9.05
2017-11-05T07:45:40.626Z,9.05
2017-11-05T07:46:40.307Z,9.05
2017-11-05T07:47:55.256Z,9.24
2017-11-05T07:48:40.356Z,9.23
2017-11-05T07:49:40.047Z,9.29
2017-11-05T07:51:40.087Z,9.38
2017-11-05T07:52:40.751Z,9.33
2017-11-05T07:53:40.768Z,9.42
2017-11-05T07:54:40.787Z,9.46
2017-11-05T07:56:40.854Z,9.58
2017-11-05T07:57:40.865Z,9.71
2017-11-05T07:58:40.868Z,9.72
2017-11-05T07:59:40.575Z,9.86
2017-11-05T08:00:40.922Z,9.94
2017-11-05T08:01:40.940Z,10.01
2017-11-05T08:03:40.963Z,10.17
2017-11-05T08:04:40.671Z,10.18
2017-11-05T08:05:41.019Z,10.23
2017-11-05T08:06:41.036Z,10.25
2017-11-05T08:07:41.051Z,10.34
2017-11-05T08:08:41.070Z,10.47
2017-11-05T08:09:41.082Z,10.59
2017-11-05T08:11:41.126Z,10.68
2017-11-05T08:12:41.149Z,10.74
2017-11-05T08:13:41.169Z,10.86
2017-11-05T08:14:41.192Z,10.92
2017-11-05T08:15:41.222Z,10.94
2017-11-05T08:16:40.920Z,11.03
2017-11-05T08:17:41.257Z,11.02
2017-11-05T08:18:55.880Z,11.07
2017-11-05T08:19:41.305Z,11.04
2017-11-05T08:20:41.308Z,11.06
2017-11-05T08:21:41.327Z,11.06
2017-11-05T08:22:41.358Z,10.89
2017-11-05T08:23:41.370Z,10.89
2017-11-05T08:24:41.400Z,10.86
2017-11-05T08:25:41.413Z,10.91
2017-11-05T08:27:56.076Z,10.7
2017-11-05T08:28:41.484Z,10.86
2017-11-05T08:29:41.516Z,10.7
2017-11-05T08:30:41.534Z,10.7
2017-11-05T08:31:41.539Z,10.71
2017-11-05T08:32:41.242Z,10.86
2017-11-05T08:33:41.591Z,10.88
2017-11-05T08:34:41.629Z,10.91
2017-11-05T08:35:56.230Z,11
2017-11-05T08:36:41.659Z,11.02
2017-11-05T08:37:41.673Z,11.04
2017-11-05T08:38:41.047Z,11.04
2017-11-05T08:39:41.389Z,11.06
2017-11-05T08:40:41.410Z,11.04
2017-11-05T08:42:41.772Z,11.17
2017-11-05T08:43:56.408Z,11.28
2017-11-05T08:44:41.803Z,11.29
2017-11-05T08:45:41.496Z,11.43
2017-11-05T08:46:41.849Z,11.6
2017-11-05T08:47:41.882Z,11.7
2017-11-05T08:49:41.904Z,12.04
2017-11-05T08:50:56.535Z,12.28
2017-11-05T08:51:41.965Z,12.41
2017-11-05T08:52:41.970Z,12.45
2017-11-05T08:53:42.021Z,12.47
2017-11-05T08:54:42.003Z,12.57
2017-11-05T08:55:42.039Z,12.68
2017-11-05T08:56:42.042Z,12.77
2017-11-05T08:57:42.066Z,12.64
2017-11-05T08:58:42.090Z,12.65
2017-11-05T08:59:56.409Z,12.67
2017-11-05T09:00:41.828Z,12.6
2017-11-05T09:01:41.848Z,12.54
2017-11-05T09:02:41.864Z,12.5
2017-11-05T09:03:42.213Z,12.41
2017-11-05T09:04:42.239Z,12.45
2017-11-05T09:05:56.532Z,12.5
2017-11-05T09:06:42.280Z,12.47
2017-11-05T09:07:42.296Z,12.39
2017-11-05T09:08:42.307Z,12.39
2017-11-05T09:09:42.011Z,12.39
2017-11-05T09:10:42.350Z,12.45
2017-11-05T09:11:42.398Z,12.39
2017-11-05T09:12:42.408Z,12.37
2017-11-05T09:13:42.414Z,12.27
2017-11-05T09:14:42.120Z,12.37
2017-11-05T09:15:57.073Z,12.35
2017-11-05T09:16:42.481Z,12.31
2017-11-05T09:17:42.174Z,12.35
2017-11-05T09:18:42.520Z,12.37
2017-11-05T09:19:42.541Z,12.32
2017-11-05T09:20:42.243Z,12.38
2017-11-05T09:21:42.263Z,12.41
2017-11-05T09:22:42.614Z,12.46
2017-11-05T09:23:42.658Z,12.53
2017-11-05T09:24:42.656Z,12.47
2017-11-05T09:25:57.263Z,12.54
2017-11-05T09:26:42.701Z,12.57
2017-11-05T09:28:42.723Z,12.68
2017-11-05T09:30:57.374Z,12.71
2017-11-05T09:31:42.466Z,12.74
2017-11-05T09:32:42.497Z,12.82
2017-11-05T09:33:42.514Z,12.93
2017-11-05T09:34:42.528Z,12.9
2017-11-05T09:35:42.890Z,13
2017-11-05T09:36:42.611Z,13.11
2017-11-05T09:37:42.910Z,13.08
2017-11-05T09:38:57.540Z,13.15
2017-11-05T09:39:42.961Z,13.12
2017-11-05T09:40:42.994Z,13.15
2017-11-05T09:41:43.003Z,13.17
2017-11-05T09:42:43.039Z,13.15
2017-11-05T09:43:43.060Z,13.03
2017-11-05T09:44:43.080Z,13.1
2017-11-05T09:45:43.082Z,13.08
2017-11-05T09:46:57.716Z,12.95
2017-11-05T09:47:43.135Z,12.93
2017-11-05T09:48:43.147Z,12.86
2017-11-05T09:49:43.181Z,12.9
2017-11-05T09:50:43.182Z,12.9
2017-11-05T09:51:43.242Z,12.89
2017-11-05T09:52:43.242Z,12.86
2017-11-05T09:53:43.247Z,12.85
2017-11-05T09:55:43.292Z,13
2017-11-05T09:56:43.008Z,13.11
2017-11-05T09:57:43.352Z,13.11
2017-11-05T09:58:43.353Z,13.22
2017-11-05T09:59:43.385Z,13.32
2017-11-05T10:00:43.082Z,13.42
2017-11-05T10:01:58.035Z,13.46
2017-11-05T10:03:43.455Z,13.49
2017-11-05T10:04:43.476Z,13.57
2017-11-05T10:05:43.502Z,13.51
2017-11-05T10:06:58.133Z,13.51
2017-11-05T10:07:43.235Z,13.54
2017-11-05T10:08:43.248Z,13.55
2017-11-05T10:09:43.268Z,13.52
2017-11-05T10:10:43.298Z,13.44
2017-11-05T10:11:43.638Z,13.42
2017-11-05T10:12:43.664Z,13.39
2017-11-05T10:14:43.374Z,13.46
2017-11-05T10:15:43.397Z,13.48
2017-11-05T10:16:43.409Z,13.54
2017-11-05T10:18:58.071Z,13.62
2017-11-05T10:21:43.846Z,13.77
2017-11-05T10:22:43.548Z,13.71
2017-11-05T10:23:43.894Z,13.87
2017-11-05T10:24:43.925Z,13.89
2017-11-05T10:25:43.603Z,13.88
2017-11-05T10:26:58.559Z,13.88
2017-11-05T10:27:43.999Z,13.88
2017-11-05T10:28:44.004Z,13.88
2017-11-05T10:29:44.028Z,13.88
2017-11-05T10:30:44.028Z,13.89
2017-11-05T10:31:44.060Z,13.88
2017-11-05T10:32:44.079Z,13.91
2017-11-05T10:33:44.125Z,13.87
2017-11-05T10:34:58.414Z,13.87
2017-11-05T10:35:43.833Z,13.79
2017-11-05T10:36:43.846Z,13.75
2017-11-05T10:37:43.859Z,13.73
2017-11-05T10:38:44.226Z,13.79
2017-11-05T10:39:44.236Z,13.85
2017-11-05T10:40:44.264Z,13.79
2017-11-05T10:41:44.290Z,13.87
2017-11-05T10:42:44.285Z,13.73
2017-11-05T10:43:44.316Z,13.84
2017-11-05T10:44:44.369Z,13.73
2017-11-05T10:45:58.961Z,13.63
2017-11-05T10:46:44.383Z,13.64
2017-11-05T10:47:44.084Z,13.62
2017-11-05T10:49:44.450Z,13.59
2017-11-05T10:50:59.080Z,13.59
2017-11-05T10:51:44.508Z,13.52
2017-11-05T10:52:44.513Z,13.57
2017-11-05T10:53:44.541Z,13.52
2017-11-05T10:54:44.563Z,13.44
2017-11-05T10:55:44.245Z,13.46
2017-11-05T10:56:44.619Z,13.36
2017-11-05T10:57:44.621Z,13.49
2017-11-05T10:58:44.328Z,13.46
2017-11-05T10:59:44.338Z,13.44
2017-11-05T11:00:44.355Z,13.38
2017-11-05T11:01:44.703Z,13.36
2017-11-05T11:02:44.409Z,13.55
2017-11-05T11:03:44.416Z,13.51
2017-11-05T11:04:44.768Z,13.54
2017-11-05T11:05:59.406Z,13.48
2017-11-05T11:06:44.166Z,13.55
2017-11-05T11:07:44.830Z,13.49
2017-11-05T11:08:44.529Z,13.59
2017-11-05T11:09:44.859Z,13.49
2017-11-05T11:10:59.500Z,13.42
2017-11-05T11:11:44.914Z,13.45
2017-11-05T11:12:44.938Z,13.54
2017-11-05T11:13:44.969Z,13.39
2017-11-05T11:14:44.967Z,13.45
2017-11-05T11:15:45.003Z,13.39
2017-11-05T11:16:45.030Z,13.38
2017-11-05T11:17:44.728Z,13.42
2017-11-05T11:18:45.065Z,13.51
2017-11-05T11:19:45.097Z,13.38
2017-11-05T11:20:44.794Z,13.41
2017-11-05T11:21:45.142Z,13.38
2017-11-05T11:22:45.143Z,13.3
2017-11-05T11:23:45.170Z,13.39
2017-11-05T11:24:44.873Z,13.38
2017-11-05T11:25:45.220Z,13.36
2017-11-05T11:26:44.919Z,13.38
2017-11-05T11:27:45.249Z,13.33
2017-11-05T11:28:45.280Z,13.33
2017-11-05T11:29:44.973Z,13.3
2017-11-05T11:30:45.319Z,13.41
2017-11-05T11:31:45.380Z,13.44
2017-11-05T11:32:45.043Z,13.45
2017-11-05T11:33:45.384Z,13.44
2017-11-05T11:34:45.403Z,13.48
2017-11-05T11:35:45.437Z,13.49
2017-11-05T11:36:45.443Z,13.54
2017-11-05T11:38:00.088Z,13.49
2017-11-05T11:38:45.492Z,13.63
2017-11-05T11:39:45.514Z,13.6
2017-11-05T11:40:45.533Z,13.55
2017-11-05T11:41:45.555Z,13.66
2017-11-05T11:42:45.608Z,13.64
2017-11-05T11:43:45.594Z,13.66
2017-11-05T11:45:00.218Z,13.79
2017-11-05T11:45:45.314Z,13.82
2017-11-05T11:47:00.259Z,13.89
2017-11-05T11:48:45.689Z,13.89
2017-11-05T11:49:45.717Z,13.89
2017-11-05T11:50:45.418Z,13.97
2017-11-05T11:51:45.765Z,13.95
2017-11-05T11:52:45.787Z,14.12
2017-11-05T11:54:00.419Z,14.17
2017-11-05T11:54:45.839Z,14.25
2017-11-05T11:55:45.520Z,14.27
2017-11-05T11:56:45.878Z,14.36
2017-11-05T11:57:45.564Z,14.46
2017-11-05T11:58:45.928Z,14.45
2017-11-05T11:59:45.943Z,14.55
2017-11-05T12:00:45.978Z,14.51
2017-11-05T12:02:00.265Z,14.5
2017-11-05T12:02:46.025Z,14.55
2017-11-05T12:03:46.034Z,14.58
2017-11-05T12:04:45.733Z,14.55
2017-11-05T12:05:45.745Z,14.55
2017-11-05T12:06:45.766Z,14.55
2017-11-05T12:08:00.721Z,14.54
2017-11-05T12:08:46.142Z,14.55
2017-11-05T12:10:00.752Z,14.51
2017-11-05T12:11:00.466Z,14.51
2017-11-05T12:11:46.184Z,14.5
2017-11-05T12:12:46.225Z,14.5
2017-11-05T12:14:46.259Z,14.47
2017-11-05T12:15:46.280Z,14.46
2017-11-05T12:16:46.305Z,14.47
2017-11-05T12:18:00.931Z,14.46
2017-11-05T12:18:46.353Z,14.52
2017-11-05T12:20:00.973Z,14.4
2017-11-05T12:20:46.407Z,14.4
2017-11-05T12:21:46.089Z,14.42
2017-11-05T12:22:46.426Z,14.46
2017-11-05T12:23:46.458Z,14.39
2017-11-05T12:24:46.481Z,14.36
2017-11-05T12:26:01.110Z,14.39
2017-11-05T12:26:46.531Z,14.45
2017-11-05T12:28:00.830Z,14.4
2017-11-05T12:28:46.241Z,14.47
2017-11-05T12:29:46.258Z,14.51
2017-11-05T12:30:46.594Z,14.51
2017-11-05T12:31:46.349Z,14.55
2017-11-05T12:32:46.665Z,14.46
2017-11-05T12:33:46.694Z,14.5
2017-11-05T12:34:46.711Z,14.47
2017-11-05T12:35:46.709Z,14.46
2017-11-05T12:36:46.741Z,14.54
2017-11-05T12:38:01.377Z,14.52
2017-11-05T12:38:46.788Z,14.5
2017-11-05T12:39:46.473Z,14.47
2017-11-05T12:41:01.442Z,14.47
2017-11-05T12:41:46.531Z,14.52
2017-11-05T12:44:46.903Z,14.47
2017-11-05T12:45:46.618Z,14.46
2017-11-05T12:46:46.954Z,14.5
2017-11-05T12:47:46.984Z,14.46
2017-11-05T12:48:47.013Z,14.52
2017-11-05T12:49:47.017Z,14.5
2017-11-05T12:50:47.032Z,14.5
2017-11-05T12:51:47.080Z,14.43
2017-11-05T12:53:47.111Z,14.47
2017-11-05T12:55:01.752Z,14.42
2017-11-05T12:55:47.150Z,14.37
2017-11-05T12:56:47.165Z,14.4
2017-11-05T12:57:47.205Z,14.46
2017-11-05T12:58:47.227Z,14.39
2017-11-05T12:59:46.917Z,14.42
2017-11-05T13:00:47.271Z,14.45
2017-11-05T13:01:46.975Z,14.39
2017-11-05T13:02:47.296Z,14.39
2017-11-05T13:03:47.323Z,14.4
2017-11-05T13:04:47.028Z,14.47
2017-11-05T13:05:47.379Z,14.4
2017-11-05T13:06:47.409Z,14.46
2017-11-05T13:07:47.422Z,14.46
2017-11-05T13:08:47.122Z,14.47
2017-11-05T13:09:47.456Z,14.42
2017-11-05T13:10:47.164Z,14.37
2017-11-05T13:11:47.500Z,14.33
2017-11-05T13:13:02.133Z,14.32
2017-11-05T13:13:47.546Z,14.28
2017-11-05T13:15:01.856Z,14.17
2017-11-05T13:15:47.575Z,14.18
2017-11-05T13:16:47.618Z,14.32
2017-11-05T13:17:47.308Z,14.2
2017-11-05T13:18:47.009Z,14.06
2017-11-05T13:19:47.355Z,14.07
2017-11-05T13:20:47.681Z,14.09
2017-11-05T13:21:47.715Z,14.09
2017-11-05T13:22:47.422Z,14.04
2017-11-05T13:23:47.768Z,14.07
2017-11-05T13:24:47.466Z,13.96
2017-11-05T13:25:47.160Z,13.91
2017-11-05T13:26:47.844Z,13.89
2017-11-05T13:29:02.159Z,13.87
2017-11-05T13:29:47.918Z,13.91
2017-11-05T13:30:47.913Z,13.92
2017-11-05T13:31:47.607Z,13.92
2017-11-05T13:32:47.951Z,13.95
2017-11-05T13:33:47.666Z,13.89
2017-11-05T13:34:48.000Z,13.77
2017-11-05T13:35:48.030Z,13.77
2017-11-05T13:36:48.038Z,13.88
2017-11-05T13:37:48.071Z,13.89
2017-11-05T13:38:48.086Z,13.87
2017-11-05T13:39:48.103Z,13.81
2017-11-05T13:40:48.131Z,13.81
2017-11-05T13:41:47.830Z,13.77
2017-11-05T13:42:47.857Z,13.77
2017-11-05T13:43:48.185Z,13.79
2017-11-05T13:45:02.493Z,13.79
2017-11-05T13:45:48.238Z,13.67
2017-11-05T13:46:47.947Z,13.64
2017-11-05T13:47:47.960Z,13.66
2017-11-05T13:48:48.287Z,13.67
2017-11-05T13:49:48.333Z,13.7
2017-11-05T13:50:48.347Z,13.69
2017-11-05T13:51:48.035Z,13.78
2017-11-05T13:52:48.387Z,13.66
2017-11-05T13:53:48.416Z,13.69
2017-11-05T13:54:48.419Z,13.69
2017-11-05T13:55:48.459Z,13.77
2017-11-05T13:56:48.147Z,13.77
2017-11-05T13:57:48.181Z,13.79
2017-11-05T13:58:48.521Z,13.82
2017-11-05T13:59:48.524Z,13.79
2017-11-05T14:01:03.173Z,13.73
2017-11-05T14:02:48.610Z,13.77
2017-11-05T14:03:48.659Z,13.71
2017-11-05T14:04:48.658Z,13.81
2017-11-05T14:05:48.352Z,13.81
2017-11-05T14:06:48.693Z,13.81
2017-11-05T14:07:48.716Z,13.73
2017-11-05T14:08:48.413Z,13.75
2017-11-05T14:09:48.429Z,13.82
2017-11-05T14:10:48.779Z,13.79
2017-11-05T14:11:48.803Z,13.77
2017-11-05T14:12:48.816Z,13.71